sensor_id;sensor_type;location;lat;lon;timestamp;P1;durP1;ratioP1;P2;durP2;ratioP2
46355;SDS011;32066;49.474;11.106;2023-12-20T00:01:13;10.27;;;5.32;;
46355;SDS011;32066;49.474;11.106;2023-12-20T00:03:44;11.73;;;5.07;;
46355;SDS011;32066;49.474;11.106;2023-12-20T00:06:13;8.85;;;5.10;;
46355;SDS011;32066;49.474;11.106;2023-12-20T00:08:44;8.70;;;5.10;;
46355;SDS011;32066;49.474;11.106;2023-12-20T00:11:18;9.90;;;4.93;;
46355;SDS011;32066;49.474;11.106;2023-12-20T00:13:46;8.73;;;4.95;;
46355;SDS011;32066;49.474;11.106;2023-12-20T00:16:15;10.23;;;4.70;;
46355;SDS011;32066;49.474;11.106;2023-12-20T00:18:46;8.63;;;4.80;;
46355;SDS011;32066;49.474;11.106;2023-12-20T00:21:15;9.80;;;5.20;;
46355;SDS011;32066;49.474;11.106;2023-12-20T00:23:43;8.07;;;4.82;;
46355;SDS011;32066;49.474;11.106;2023-12-20T00:26:12;9.73;;;4.93;;
46355;SDS011;32066;49.474;11.106;2023-12-20T00:28:41;8.68;;;4.70;;
46355;SDS011;32066;49.474;11.106;2023-12-20T00:31:09;9.00;;;5.10;;
46355;SDS011;32066;49.474;11.106;2023-12-20T00:33:38;7.72;;;4.47;;
46355;SDS011;32066;49.474;11.106;2023-12-20T00:36:11;8.63;;;4.80;;
46355;SDS011;32066;49.474;11.106;2023-12-20T00:38:39;7.82;;;4.35;;
46355;SDS011;32066;49.474;11.106;2023-12-20T00:41:08;9.07;;;4.45;;
46355;SDS011;32066;49.474;11.106;2023-12-20T00:43:37;7.70;;;4.22;;
46355;SDS011;32066;49.474;11.106;2023-12-20T00:46:05;8.30;;;4.78;;
46355;SDS011;32066;49.474;11.106;2023-12-20T00:48:34;8.07;;;4.35;;
46355;SDS011;32066;49.474;11.106;2023-12-20T00:51:03;10.70;;;4.85;;
46355;SDS011;32066;49.474;11.106;2023-12-20T00:53:34;7.80;;;4.18;;
46355;SDS011;32066;49.474;11.106;2023-12-20T00:56:03;8.05;;;4.10;;
46355;SDS011;32066;49.474;11.106;2023-12-20T00:58:32;8.05;;;4.28;;
46355;SDS011;32066;49.474;11.106;2023-12-20T01:01:00;7.88;;;4.15;;
46355;SDS011;32066;49.474;11.106;2023-12-20T01:03:29;8.57;;;4.13;;
46355;SDS011;32066;49.474;11.106;2023-12-20T01:05:57;8.18;;;3.78;;
46355;SDS011;32066;49.474;11.106;2023-12-20T01:08:26;7.82;;;4.13;;
46355;SDS011;32066;49.474;11.106;2023-12-20T01:10:57;6.68;;;4.22;;
46355;SDS011;32066;49.474;11.106;2023-12-20T01:13:26;8.27;;;3.97;;
46355;SDS011;32066;49.474;11.106;2023-12-20T01:15:54;7.40;;;3.72;;
46355;SDS011;32066;49.474;11.106;2023-12-20T01:18:23;7.22;;;3.80;;
46355;SDS011;32066;49.474;11.106;2023-12-20T01:20:51;6.57;;;3.42;;
46355;SDS011;32066;49.474;11.106;2023-12-20T01:23:20;7.20;;;3.13;;
46355;SDS011;32066;49.474;11.106;2023-12-20T01:25:49;6.57;;;2.92;;
46355;SDS011;32066;49.474;11.106;2023-12-20T01:28:20;5.75;;;3.13;;
46355;SDS011;32066;49.474;11.106;2023-12-20T01:30:49;5.13;;;2.70;;
46355;SDS011;32066;49.474;11.106;2023-12-20T01:33:17;4.88;;;2.42;;
46355;SDS011;32066;49.474;11.106;2023-12-20T01:35:46;4.82;;;2.13;;
46355;SDS011;32066;49.474;11.106;2023-12-20T01:38:15;5.57;;;2.65;;
46355;SDS011;32066;49.474;11.106;2023-12-20T01:40:45;5.65;;;1.90;;
46355;SDS011;32066;49.474;11.106;2023-12-20T01:43:13;4.65;;;2.03;;
46355;SDS011;32066;49.474;11.106;2023-12-20T01:45:44;5.10;;;2.03;;
46355;SDS011;32066;49.474;11.106;2023-12-20T01:48:14;4.43;;;1.83;;
46355;SDS011;32066;49.474;11.106;2023-12-20T01:50:45;5.30;;;1.95;;
46355;SDS011;32066;49.474;11.106;2023-12-20T01:53:14;4.70;;;2.00;;
46355;SDS011;32066;49.474;11.106;2023-12-20T01:55:44;4.63;;;2.08;;
46355;SDS011;32066;49.474;11.106;2023-12-20T01:58:14;3.78;;;1.80;;
46355;SDS011;32066;49.474;11.106;2023-12-20T02:00:46;3.65;;;1.80;;
46355;SDS011;32066;49.474;11.106;2023-12-20T02:03:15;5.72;;;1.92;;
46355;SDS011;32066;49.474;11.106;2023-12-20T02:05:44;3.92;;;1.73;;
46355;SDS011;32066;49.474;11.106;2023-12-20T02:08:15;4.70;;;1.55;;
46355;SDS011;32066;49.474;11.106;2023-12-20T02:10:43;5.35;;;1.85;;
46355;SDS011;32066;49.474;11.106;2023-12-20T02:13:12;3.58;;;1.67;;
46355;SDS011;32066;49.474;11.106;2023-12-20T02:15:41;4.47;;;1.40;;
46355;SDS011;32066;49.474;11.106;2023-12-20T02:18:12;4.88;;;1.60;;
46355;SDS011;32066;49.474;11.106;2023-12-20T02:20:41;3.25;;;1.30;;
46355;SDS011;32066;49.474;11.106;2023-12-20T02:23:13;3.60;;;1.50;;
46355;SDS011;32066;49.474;11.106;2023-12-20T02:25:41;3.20;;;1.20;;
46355;SDS011;32066;49.474;11.106;2023-12-20T02:28:10;3.63;;;1.35;;
46355;SDS011;32066;49.474;11.106;2023-12-20T02:30:39;3.13;;;1.20;;
46355;SDS011;32066;49.474;11.106;2023-12-20T02:33:08;3.25;;;1.20;;
46355;SDS011;32066;49.474;11.106;2023-12-20T02:35:39;3.55;;;1.20;;
46355;SDS011;32066;49.474;11.106;2023-12-20T02:38:08;3.42;;;1.10;;
46355;SDS011;32066;49.474;11.106;2023-12-20T02:40:39;2.58;;;1.00;;
46355;SDS011;32066;49.474;11.106;2023-12-20T02:43:08;2.42;;;0.90;;
46355;SDS011;32066;49.474;11.106;2023-12-20T02:45:37;3.08;;;1.08;;
46355;SDS011;32066;49.474;11.106;2023-12-20T02:48:05;4.15;;;1.25;;
46355;SDS011;32066;49.474;11.106;2023-12-20T02:50:34;2.60;;;0.85;;
46355;SDS011;32066;49.474;11.106;2023-12-20T02:53:03;2.70;;;0.95;;
46355;SDS011;32066;49.474;11.106;2023-12-20T02:55:32;2.55;;;0.90;;
46355;SDS011;32066;49.474;11.106;2023-12-20T02:58:03;2.78;;;0.82;;
46355;SDS011;32066;49.474;11.106;2023-12-20T03:00:32;2.78;;;0.90;;
46355;SDS011;32066;49.474;11.106;2023-12-20T03:03:00;2.75;;;0.98;;
46355;SDS011;32066;49.474;11.106;2023-12-20T03:05:29;3.75;;;0.90;;
46355;SDS011;32066;49.474;11.106;2023-12-20T03:07:57;2.17;;;0.80;;
46355;SDS011;32066;49.474;11.106;2023-12-20T03:10:26;3.50;;;0.98;;
46355;SDS011;32066;49.474;11.106;2023-12-20T03:12:56;2.58;;;0.90;;
46355;SDS011;32066;49.474;11.106;2023-12-20T03:15:27;3.25;;;0.90;;
46355;SDS011;32066;49.474;11.106;2023-12-20T03:17:55;2.78;;;1.10;;
46355;SDS011;32066;49.474;11.106;2023-12-20T03:20:24;2.88;;;0.90;;
46355;SDS011;32066;49.474;11.106;2023-12-20T03:22:53;3.50;;;0.98;;
46355;SDS011;32066;49.474;11.106;2023-12-20T03:25:22;3.40;;;0.80;;
46355;SDS011;32066;49.474;11.106;2023-12-20T03:27:51;2.47;;;0.90;;
46355;SDS011;32066;49.474;11.106;2023-12-20T03:30:19;2.58;;;0.80;;
46355;SDS011;32066;49.474;11.106;2023-12-20T03:32:51;4.70;;;0.73;;
46355;SDS011;32066;49.474;11.106;2023-12-20T03:35:19;2.10;;;0.73;;
46355;SDS011;32066;49.474;11.106;2023-12-20T03:37:48;2.58;;;0.80;;
46355;SDS011;32066;49.474;11.106;2023-12-20T03:40:17;3.60;;;0.80;;
46355;SDS011;32066;49.474;11.106;2023-12-20T03:42:45;2.28;;;0.73;;
46355;SDS011;32066;49.474;11.106;2023-12-20T03:45:14;1.80;;;0.63;;
46355;SDS011;32066;49.474;11.106;2023-12-20T03:47:43;3.10;;;0.90;;
46355;SDS011;32066;49.474;11.106;2023-12-20T03:50:14;2.33;;;0.70;;
46355;SDS011;32066;49.474;11.106;2023-12-20T03:52:43;2.45;;;0.90;;
46355;SDS011;32066;49.474;11.106;2023-12-20T03:55:11;2.60;;;0.80;;
46355;SDS011;32066;49.474;11.106;2023-12-20T03:57:40;3.20;;;1.25;;
46355;SDS011;32066;49.474;11.106;2023-12-20T04:00:09;2.53;;;0.70;;
46355;SDS011;32066;49.474;11.106;2023-12-20T04:02:38;2.83;;;1.00;;
46355;SDS011;32066;49.474;11.106;2023-12-20T04:05:08;2.97;;;1.05;;
46355;SDS011;32066;49.474;11.106;2023-12-20T04:07:40;2.20;;;0.70;;
46355;SDS011;32066;49.474;11.106;2023-12-20T04:10:09;2.53;;;1.00;;
46355;SDS011;32066;49.474;11.106;2023-12-20T04:12:37;2.58;;;0.90;;
46355;SDS011;32066;49.474;11.106;2023-12-20T04:15:06;2.78;;;0.70;;
46355;SDS011;32066;49.474;11.106;2023-12-20T04:17:37;2.90;;;1.00;;
46355;SDS011;32066;49.474;11.106;2023-12-20T04:20:06;2.92;;;1.00;;
46355;SDS011;32066;49.474;11.106;2023-12-20T04:22:35;2.70;;;0.90;;
46355;SDS011;32066;49.474;11.106;2023-12-20T04:25:07;2.97;;;1.25;;
46355;SDS011;32066;49.474;11.106;2023-12-20T04:27:36;2.50;;;0.90;;
46355;SDS011;32066;49.474;11.106;2023-12-20T04:30:05;2.47;;;0.80;;
46355;SDS011;32066;49.474;11.106;2023-12-20T04:32:35;2.65;;;1.10;;
46355;SDS011;32066;49.474;11.106;2023-12-20T04:35:04;2.50;;;1.00;;
46355;SDS011;32066;49.474;11.106;2023-12-20T04:37:33;2.65;;;1.00;;
46355;SDS011;32066;49.474;11.106;2023-12-20T04:40:02;3.28;;;1.02;;
46355;SDS011;32066;49.474;11.106;2023-12-20T04:42:35;4.55;;;1.00;;
46355;SDS011;32066;49.474;11.106;2023-12-20T04:45:04;3.00;;;1.15;;
46355;SDS011;32066;49.474;11.106;2023-12-20T04:47:34;2.65;;;1.20;;
46355;SDS011;32066;49.474;11.106;2023-12-20T04:50:03;2.47;;;0.90;;
46355;SDS011;32066;49.474;11.106;2023-12-20T04:52:32;2.60;;;1.10;;
46355;SDS011;32066;49.474;11.106;2023-12-20T04:55:01;2.80;;;1.00;;
46355;SDS011;32066;49.474;11.106;2023-12-20T04:57:29;4.53;;;1.42;;
46355;SDS011;32066;49.474;11.106;2023-12-20T05:00:00;3.53;;;1.20;;
46355;SDS011;32066;49.474;11.106;2023-12-20T05:02:29;2.58;;;1.00;;
46355;SDS011;32066;49.474;11.106;2023-12-20T05:04:58;3.15;;;1.20;;
46355;SDS011;32066;49.474;11.106;2023-12-20T05:07:27;3.30;;;1.20;;
46355;SDS011;32066;49.474;11.106;2023-12-20T05:09:55;2.78;;;1.20;;
46355;SDS011;32066;49.474;11.106;2023-12-20T05:12:24;2.83;;;1.20;;
46355;SDS011;32066;49.474;11.106;2023-12-20T05:14:52;2.83;;;1.10;;
46355;SDS011;32066;49.474;11.106;2023-12-20T05:17:24;3.03;;;1.20;;
46355;SDS011;32066;49.474;11.106;2023-12-20T05:19:52;3.20;;;1.30;;
46355;SDS011;32066;49.474;11.106;2023-12-20T05:22:21;4.57;;;1.30;;
46355;SDS011;32066;49.474;11.106;2023-12-20T05:24:49;2.78;;;1.10;;
46355;SDS011;32066;49.474;11.106;2023-12-20T05:27:18;4.03;;;1.10;;
46355;SDS011;32066;49.474;11.106;2023-12-20T05:29:47;3.20;;;1.42;;
46355;SDS011;32066;49.474;11.106;2023-12-20T05:32:16;3.97;;;1.80;;
46355;SDS011;32066;49.474;11.106;2023-12-20T05:34:47;3.38;;;1.02;;
46355;SDS011;32066;49.474;11.106;2023-12-20T05:37:16;3.08;;;1.27;;
46355;SDS011;32066;49.474;11.106;2023-12-20T05:39:44;4.68;;;1.90;;
46355;SDS011;32066;49.474;11.106;2023-12-20T05:42:13;3.67;;;1.50;;
46355;SDS011;32066;49.474;11.106;2023-12-20T05:44:41;3.40;;;1.40;;
46355;SDS011;32066;49.474;11.106;2023-12-20T05:47:10;3.47;;;1.30;;
46355;SDS011;32066;49.474;11.106;2023-12-20T05:49:39;3.67;;;1.60;;
46355;SDS011;32066;49.474;11.106;2023-12-20T05:52:10;3.60;;;1.50;;
46355;SDS011;32066;49.474;11.106;2023-12-20T05:54:38;3.20;;;1.40;;
46355;SDS011;32066;49.474;11.106;2023-12-20T05:57:07;2.85;;;1.20;;
46355;SDS011;32066;49.474;11.106;2023-12-20T05:59:35;3.00;;;1.20;;
46355;SDS011;32066;49.474;11.106;2023-12-20T06:02:04;3.42;;;1.30;;
46355;SDS011;32066;49.474;11.106;2023-12-20T06:04:33;3.50;;;1.33;;
46355;SDS011;32066;49.474;11.106;2023-12-20T06:07:02;2.60;;;1.10;;
46355;SDS011;32066;49.474;11.106;2023-12-20T06:09:33;4.85;;;1.30;;
46355;SDS011;32066;49.474;11.106;2023-12-20T06:12:02;5.28;;;1.33;;
46355;SDS011;32066;49.474;11.106;2023-12-20T06:14:31;3.60;;;1.40;;
46355;SDS011;32066;49.474;11.106;2023-12-20T06:17:00;4.82;;;1.70;;
46355;SDS011;32066;49.474;11.106;2023-12-20T06:19:29;6.55;;;1.60;;
46355;SDS011;32066;49.474;11.106;2023-12-20T06:21:57;5.00;;;1.95;;
46355;SDS011;32066;49.474;11.106;2023-12-20T06:24:26;5.53;;;2.13;;
46355;SDS011;32066;49.474;11.106;2023-12-20T06:26:57;4.63;;;1.90;;
46355;SDS011;32066;49.474;11.106;2023-12-20T06:29:26;5.28;;;1.80;;
46355;SDS011;32066;49.474;11.106;2023-12-20T06:31:56;5.18;;;1.83;;
46355;SDS011;32066;49.474;11.106;2023-12-20T06:34:24;3.97;;;1.70;;
46355;SDS011;32066;49.474;11.106;2023-12-20T06:36:53;4.35;;;1.60;;
46355;SDS011;32066;49.474;11.106;2023-12-20T06:39:21;4.57;;;1.85;;
46355;SDS011;32066;49.474;11.106;2023-12-20T06:41:51;4.30;;;1.55;;
46355;SDS011;32066;49.474;11.106;2023-12-20T06:44:22;4.97;;;2.25;;
46355;SDS011;32066;49.474;11.106;2023-12-20T06:46:50;4.75;;;1.95;;
46355;SDS011;32066;49.474;11.106;2023-12-20T06:49:19;5.13;;;2.03;;
46355;SDS011;32066;49.474;11.106;2023-12-20T06:51:48;5.45;;;2.55;;
46355;SDS011;32066;49.474;11.106;2023-12-20T06:54:18;7.03;;;2.20;;
46355;SDS011;32066;49.474;11.106;2023-12-20T06:56:47;8.27;;;2.30;;
46355;SDS011;32066;49.474;11.106;2023-12-20T06:59:15;5.40;;;2.20;;
46355;SDS011;32066;49.474;11.106;2023-12-20T07:01:49;5.22;;;2.40;;
46355;SDS011;32066;49.474;11.106;2023-12-20T07:04:19;6.88;;;2.60;;
46355;SDS011;32066;49.474;11.106;2023-12-20T07:06:48;5.53;;;2.85;;
46355;SDS011;32066;49.474;11.106;2023-12-20T07:09:19;5.38;;;2.35;;
46355;SDS011;32066;49.474;11.106;2023-12-20T07:11:47;7.68;;;2.55;;
46355;SDS011;32066;49.474;11.106;2023-12-20T07:14:16;7.45;;;3.17;;
46355;SDS011;32066;49.474;11.106;2023-12-20T07:16:45;5.93;;;2.25;;
46355;SDS011;32066;49.474;11.106;2023-12-20T07:19:16;5.70;;;2.70;;
46355;SDS011;32066;49.474;11.106;2023-12-20T07:21:46;4.10;;;2.20;;
46355;SDS011;32066;49.474;11.106;2023-12-20T07:24:14;6.78;;;2.33;;
46355;SDS011;32066;49.474;11.106;2023-12-20T07:26:43;4.50;;;2.60;;
46355;SDS011;32066;49.474;11.106;2023-12-20T07:29:12;4.78;;;2.70;;
46355;SDS011;32066;49.474;11.106;2023-12-20T07:31:41;4.93;;;2.70;;
46355;SDS011;32066;49.474;11.106;2023-12-20T07:34:09;4.90;;;3.15;;
46355;SDS011;32066;49.474;11.106;2023-12-20T07:36:41;5.85;;;3.03;;
46355;SDS011;32066;49.474;11.106;2023-12-20T07:39:25;6.10;;;3.05;;
46355;SDS011;32066;49.474;11.106;2023-12-20T07:42:05;5.20;;;3.30;;
46355;SDS011;32066;49.474;11.106;2023-12-20T07:44:52;4.90;;;2.77;;
46355;SDS011;32066;49.474;11.106;2023-12-20T07:47:21;4.80;;;2.80;;
46355;SDS011;32066;49.474;11.106;2023-12-20T07:49:50;5.00;;;3.05;;
46355;SDS011;32066;49.474;11.106;2023-12-20T07:52:21;5.65;;;3.28;;
46355;SDS011;32066;49.474;11.106;2023-12-20T07:54:51;5.78;;;3.03;;
46355;SDS011;32066;49.474;11.106;2023-12-20T07:57:20;5.68;;;3.10;;
46355;SDS011;32066;49.474;11.106;2023-12-20T07:59:48;5.90;;;2.88;;
46355;SDS011;32066;49.474;11.106;2023-12-20T08:02:17;5.03;;;2.97;;
46355;SDS011;32066;49.474;11.106;2023-12-20T08:04:45;6.28;;;3.50;;
46355;SDS011;32066;49.474;11.106;2023-12-20T08:07:14;6.40;;;3.53;;
46355;SDS011;32066;49.474;11.106;2023-12-20T08:09:45;5.53;;;2.90;;
46355;SDS011;32066;49.474;11.106;2023-12-20T08:12:14;4.32;;;3.00;;
46355;SDS011;32066;49.474;11.106;2023-12-20T08:14:42;4.65;;;3.10;;
46355;SDS011;32066;49.474;11.106;2023-12-20T08:17:11;5.07;;;3.28;;
46355;SDS011;32066;49.474;11.106;2023-12-20T08:19:41;5.95;;;3.58;;
46355;SDS011;32066;49.474;11.106;2023-12-20T08:22:09;6.82;;;3.50;;
46355;SDS011;32066;49.474;11.106;2023-12-20T08:24:38;5.28;;;3.35;;
46355;SDS011;32066;49.474;11.106;2023-12-20T08:27:09;6.25;;;3.40;;
46355;SDS011;32066;49.474;11.106;2023-12-20T08:29:38;6.88;;;3.67;;
46355;SDS011;32066;49.474;11.106;2023-12-20T08:32:07;6.38;;;3.08;;
46355;SDS011;32066;49.474;11.106;2023-12-20T08:34:35;5.78;;;3.35;;
46355;SDS011;32066;49.474;11.106;2023-12-20T08:37:04;5.30;;;3.17;;
46355;SDS011;32066;49.474;11.106;2023-12-20T08:39:32;5.88;;;3.47;;
46355;SDS011;32066;49.474;11.106;2023-12-20T08:42:01;6.30;;;3.90;;
46355;SDS011;32066;49.474;11.106;2023-12-20T08:44:32;6.18;;;3.53;;
46355;SDS011;32066;49.474;11.106;2023-12-20T08:47:01;5.93;;;3.53;;
46355;SDS011;32066;49.474;11.106;2023-12-20T08:49:30;7.20;;;3.30;;
46355;SDS011;32066;49.474;11.106;2023-12-20T08:51:59;6.80;;;3.50;;
46355;SDS011;32066;49.474;11.106;2023-12-20T08:54:27;6.10;;;3.13;;
46355;SDS011;32066;49.474;11.106;2023-12-20T08:56:56;5.88;;;2.90;;
46355;SDS011;32066;49.474;11.106;2023-12-20T08:59:24;7.60;;;2.95;;
46355;SDS011;32066;49.474;11.106;2023-12-20T09:01:55;6.13;;;3.10;;
46355;SDS011;32066;49.474;11.106;2023-12-20T09:04:24;8.30;;;3.38;;
46355;SDS011;32066;49.474;11.106;2023-12-20T09:06:53;5.70;;;2.83;;
46355;SDS011;32066;49.474;11.106;2023-12-20T09:09:24;7.82;;;3.58;;
46355;SDS011;32066;49.474;11.106;2023-12-20T09:11:53;6.55;;;2.80;;
46355;SDS011;32066;49.474;11.106;2023-12-20T09:14:22;6.22;;;2.83;;
46355;SDS011;32066;49.474;11.106;2023-12-20T09:16:50;7.93;;;2.80;;
46355;SDS011;32066;49.474;11.106;2023-12-20T09:19:23;6.60;;;2.75;;
46355;SDS011;32066;49.474;11.106;2023-12-20T09:21:52;7.38;;;3.20;;
46355;SDS011;32066;49.474;11.106;2023-12-20T09:24:21;6.50;;;2.70;;
46355;SDS011;32066;49.474;11.106;2023-12-20T09:26:49;5.15;;;2.70;;
46355;SDS011;32066;49.474;11.106;2023-12-20T09:29:18;6.85;;;2.88;;
46355;SDS011;32066;49.474;11.106;2023-12-20T09:31:46;4.45;;;2.45;;
46355;SDS011;32066;49.474;11.106;2023-12-20T09:34:24;6.08;;;2.55;;
46355;SDS011;32066;49.474;11.106;2023-12-20T09:36:54;5.20;;;2.70;;
46355;SDS011;32066;49.474;11.106;2023-12-20T09:39:23;6.78;;;2.75;;
46355;SDS011;32066;49.474;11.106;2023-12-20T09:42:00;6.40;;;2.97;;
46355;SDS011;32066;49.474;11.106;2023-12-20T09:44:29;7.63;;;2.60;;
46355;SDS011;32066;49.474;11.106;2023-12-20T09:47:00;6.38;;;2.30;;
46355;SDS011;32066;49.474;11.106;2023-12-20T09:49:33;4.63;;;2.50;;
46355;SDS011;32066;49.474;11.106;2023-12-20T09:52:03;5.43;;;2.45;;
46355;SDS011;32066;49.474;11.106;2023-12-20T09:54:35;5.05;;;2.17;;
46355;SDS011;32066;49.474;11.106;2023-12-20T09:57:04;6.30;;;2.00;;
46355;SDS011;32066;49.474;11.106;2023-12-20T09:59:32;7.07;;;2.00;;
46355;SDS011;32066;49.474;11.106;2023-12-20T10:02:01;7.55;;;2.38;;
46355;SDS011;32066;49.474;11.106;2023-12-20T10:04:34;8.05;;;2.53;;
46355;SDS011;32066;49.474;11.106;2023-12-20T10:07:03;6.32;;;1.95;;
46355;SDS011;32066;49.474;11.106;2023-12-20T10:09:33;5.82;;;1.77;;
46355;SDS011;32066;49.474;11.106;2023-12-20T10:12:02;6.15;;;1.88;;
46355;SDS011;32066;49.474;11.106;2023-12-20T10:14:32;5.50;;;1.75;;
46355;SDS011;32066;49.474;11.106;2023-12-20T10:17:04;5.40;;;1.83;;
46355;SDS011;32066;49.474;11.106;2023-12-20T10:19:36;7.30;;;1.90;;
46355;SDS011;32066;49.474;11.106;2023-12-20T10:22:05;6.53;;;1.60;;
46355;SDS011;32066;49.474;11.106;2023-12-20T10:24:34;6.97;;;1.75;;
46355;SDS011;32066;49.474;11.106;2023-12-20T10:27:03;6.82;;;1.83;;
46355;SDS011;32066;49.474;11.106;2023-12-20T10:29:33;8.45;;;2.00;;
46355;SDS011;32066;49.474;11.106;2023-12-20T10:32:21;7.75;;;1.80;;
46355;SDS011;32066;49.474;11.106;2023-12-20T10:34:54;7.25;;;1.70;;
46355;SDS011;32066;49.474;11.106;2023-12-20T10:37:24;4.65;;;1.70;;
46355;SDS011;32066;49.474;11.106;2023-12-20T10:39:53;5.57;;;1.85;;
46355;SDS011;32066;49.474;11.106;2023-12-20T10:42:24;7.65;;;1.75;;
46355;SDS011;32066;49.474;11.106;2023-12-20T10:44:54;6.63;;;1.90;;
46355;SDS011;32066;49.474;11.106;2023-12-20T10:47:23;5.45;;;1.90;;
46355;SDS011;32066;49.474;11.106;2023-12-20T10:49:57;8.95;;;2.03;;
46355;SDS011;32066;49.474;11.106;2023-12-20T10:52:28;8.45;;;1.70;;
46355;SDS011;32066;49.474;11.106;2023-12-20T10:54:59;7.38;;;1.65;;
46355;SDS011;32066;49.474;11.106;2023-12-20T10:57:28;7.25;;;1.83;;
46355;SDS011;32066;49.474;11.106;2023-12-20T10:59:58;6.88;;;1.70;;
46355;SDS011;32066;49.474;11.106;2023-12-20T11:02:30;4.97;;;1.52;;
46355;SDS011;32066;49.474;11.106;2023-12-20T11:05:04;5.75;;;1.70;;
46355;SDS011;32066;49.474;11.106;2023-12-20T11:07:40;9.85;;;1.88;;
46355;SDS011;32066;49.474;11.106;2023-12-20T11:10:16;7.78;;;1.95;;
46355;SDS011;32066;49.474;11.106;2023-12-20T11:12:51;8.70;;;2.95;;
46355;SDS011;32066;49.474;11.106;2023-12-20T11:15:22;6.97;;;1.90;;
46355;SDS011;32066;49.474;11.106;2023-12-20T11:17:56;9.15;;;2.10;;
46355;SDS011;32066;49.474;11.106;2023-12-20T11:20:37;8.77;;;2.20;;
46355;SDS011;32066;49.474;11.106;2023-12-20T11:23:07;11.57;;;2.30;;
46355;SDS011;32066;49.474;11.106;2023-12-20T11:25:49;14.68;;;2.63;;
46355;SDS011;32066;49.474;11.106;2023-12-20T11:28:21;6.43;;;1.95;;
46355;SDS011;32066;49.474;11.106;2023-12-20T11:30:51;8.55;;;2.25;;
46355;SDS011;32066;49.474;11.106;2023-12-20T11:33:21;5.22;;;1.83;;
46355;SDS011;32066;49.474;11.106;2023-12-20T11:35:53;6.55;;;2.00;;
46355;SDS011;32066;49.474;11.106;2023-12-20T11:38:24;7.55;;;1.85;;
46355;SDS011;32066;49.474;11.106;2023-12-20T11:40:53;5.35;;;1.60;;
46355;SDS011;32066;49.474;11.106;2023-12-20T11:43:32;7.28;;;1.67;;
46355;SDS011;32066;49.474;11.106;2023-12-20T11:46:03;7.20;;;1.77;;
46355;SDS011;32066;49.474;11.106;2023-12-20T11:48:34;6.40;;;1.80;;
46355;SDS011;32066;49.474;11.106;2023-12-20T11:51:11;5.03;;;1.73;;
46355;SDS011;32066;49.474;11.106;2023-12-20T11:53:40;7.50;;;1.70;;
46355;SDS011;32066;49.474;11.106;2023-12-20T11:56:10;9.27;;;1.83;;
46355;SDS011;32066;49.474;11.106;2023-12-20T11:58:39;6.70;;;1.83;;
46355;SDS011;32066;49.474;11.106;2023-12-20T12:01:08;7.47;;;1.98;;
46355;SDS011;32066;49.474;11.106;2023-12-20T12:03:36;7.63;;;1.75;;
46355;SDS011;32066;49.474;11.106;2023-12-20T12:06:06;6.53;;;1.70;;
46355;SDS011;32066;49.474;11.106;2023-12-20T12:08:37;9.05;;;1.92;;
46355;SDS011;32066;49.474;11.106;2023-12-20T12:11:06;6.82;;;2.17;;
46355;SDS011;32066;49.474;11.106;2023-12-20T12:13:35;5.53;;;1.77;;
46355;SDS011;32066;49.474;11.106;2023-12-20T12:16:04;5.47;;;2.17;;
46355;SDS011;32066;49.474;11.106;2023-12-20T12:18:33;5.30;;;1.92;;
46355;SDS011;32066;49.474;11.106;2023-12-20T12:21:02;7.63;;;2.40;;
46355;SDS011;32066;49.474;11.106;2023-12-20T12:23:31;6.60;;;2.22;;
46355;SDS011;32066;49.474;11.106;2023-12-20T12:26:02;7.95;;;2.35;;
46355;SDS011;32066;49.474;11.106;2023-12-20T12:28:34;8.57;;;2.30;;
46355;SDS011;32066;49.474;11.106;2023-12-20T12:31:02;8.65;;;2.20;;
46355;SDS011;32066;49.474;11.106;2023-12-20T12:33:31;10.93;;;2.30;;
46355;SDS011;32066;49.474;11.106;2023-12-20T12:36:00;6.60;;;2.33;;
46355;SDS011;32066;49.474;11.106;2023-12-20T12:38:30;8.13;;;2.05;;
46355;SDS011;32066;49.474;11.106;2023-12-20T12:41:02;7.25;;;2.17;;
46355;SDS011;32066;49.474;11.106;2023-12-20T12:43:32;12.27;;;2.75;;
46355;SDS011;32066;49.474;11.106;2023-12-20T12:46:01;6.55;;;2.30;;
46355;SDS011;32066;49.474;11.106;2023-12-20T12:48:29;7.38;;;2.20;;
46355;SDS011;32066;49.474;11.106;2023-12-20T12:50:59;8.68;;;2.22;;
46355;SDS011;32066;49.474;11.106;2023-12-20T12:53:27;7.03;;;2.70;;
46355;SDS011;32066;49.474;11.106;2023-12-20T12:55:56;9.40;;;2.10;;
46355;SDS011;32066;49.474;11.106;2023-12-20T12:58:27;8.48;;;2.15;;
46355;SDS011;32066;49.474;11.106;2023-12-20T13:00:56;7.22;;;2.00;;
46355;SDS011;32066;49.474;11.106;2023-12-20T13:03:24;6.45;;;2.13;;
46355;SDS011;32066;49.474;11.106;2023-12-20T13:05:53;10.40;;;2.80;;
46355;SDS011;32066;49.474;11.106;2023-12-20T13:08:22;6.97;;;2.22;;
46355;SDS011;32066;49.474;11.106;2023-12-20T13:10:50;6.38;;;2.00;;
46355;SDS011;32066;49.474;11.106;2023-12-20T13:13:19;7.75;;;2.42;;
46355;SDS011;32066;49.474;11.106;2023-12-20T13:15:51;6.60;;;2.10;;
46355;SDS011;32066;49.474;11.106;2023-12-20T13:18:20;7.35;;;2.17;;
46355;SDS011;32066;49.474;11.106;2023-12-20T13:20:49;6.22;;;1.92;;
46355;SDS011;32066;49.474;11.106;2023-12-20T13:23:17;6.53;;;2.00;;
46355;SDS011;32066;49.474;11.106;2023-12-20T13:25:46;8.82;;;2.22;;
46355;SDS011;32066;49.474;11.106;2023-12-20T13:28:15;6.75;;;2.20;;
46355;SDS011;32066;49.474;11.106;2023-12-20T13:30:44;5.68;;;1.85;;
46355;SDS011;32066;49.474;11.106;2023-12-20T13:33:15;6.22;;;1.83;;
46355;SDS011;32066;49.474;11.106;2023-12-20T13:35:43;6.43;;;1.90;;
46355;SDS011;32066;49.474;11.106;2023-12-20T13:38:12;5.47;;;1.73;;
46355;SDS011;32066;49.474;11.106;2023-12-20T13:40:41;8.88;;;2.17;;
46355;SDS011;32066;49.474;11.106;2023-12-20T13:43:10;7.00;;;1.85;;
46355;SDS011;32066;49.474;11.106;2023-12-20T13:45:39;4.82;;;1.73;;
46355;SDS011;32066;49.474;11.106;2023-12-20T13:48:07;7.07;;;1.80;;
46355;SDS011;32066;49.474;11.106;2023-12-20T13:50:39;8.30;;;2.20;;
46355;SDS011;32066;49.474;11.106;2023-12-20T13:53:07;8.18;;;1.83;;
46355;SDS011;32066;49.474;11.106;2023-12-20T13:55:36;9.10;;;1.77;;
46355;SDS011;32066;49.474;11.106;2023-12-20T13:58:05;6.53;;;1.85;;
46355;SDS011;32066;49.474;11.106;2023-12-20T14:00:35;7.68;;;1.98;;
46355;SDS011;32066;49.474;11.106;2023-12-20T14:03:04;6.85;;;2.00;;
46355;SDS011;32066;49.474;11.106;2023-12-20T14:05:35;5.38;;;2.03;;
46355;SDS011;32066;49.474;11.106;2023-12-20T14:08:06;7.32;;;2.28;;
46355;SDS011;32066;49.474;11.106;2023-12-20T14:10:35;8.00;;;2.35;;
46355;SDS011;32066;49.474;11.106;2023-12-20T14:13:04;6.07;;;2.10;;
46355;SDS011;32066;49.474;11.106;2023-12-20T14:15:33;5.78;;;1.95;;
46355;SDS011;32066;49.474;11.106;2023-12-20T14:18:03;12.13;;;2.10;;
46355;SDS011;32066;49.474;11.106;2023-12-20T14:20:34;8.63;;;2.00;;
46355;SDS011;32066;49.474;11.106;2023-12-20T14:23:07;6.55;;;1.90;;
46355;SDS011;32066;49.474;11.106;2023-12-20T14:25:37;8.30;;;2.20;;
46355;SDS011;32066;49.474;11.106;2023-12-20T14:28:06;7.05;;;2.05;;
46355;SDS011;32066;49.474;11.106;2023-12-20T14:30:35;6.85;;;1.80;;
46355;SDS011;32066;49.474;11.106;2023-12-20T14:33:04;7.75;;;2.22;;
46355;SDS011;32066;49.474;11.106;2023-12-20T14:35:33;6.75;;;1.95;;
46355;SDS011;32066;49.474;11.106;2023-12-20T14:38:01;7.40;;;1.95;;
46355;SDS011;32066;49.474;11.106;2023-12-20T14:40:33;7.32;;;1.73;;
46355;SDS011;32066;49.474;11.106;2023-12-20T14:43:02;5.85;;;1.77;;
46355;SDS011;32066;49.474;11.106;2023-12-20T14:45:31;9.75;;;2.00;;
46355;SDS011;32066;49.474;11.106;2023-12-20T14:48:00;6.43;;;1.95;;